sensor_id;sensor_type;location;lat;lon;timestamp;pressure;altitude;pressure_sealevel;temperature;humidity
53550;BME280;67273;52.914;-0.982;2023-07-16T00:01:23;99486.72;;;22.56;49.18
53550;BME280;67273;52.914;-0.982;2023-07-16T00:03:48;99486.72;;;22.56;49.12
53550;BME280;67273;52.914;-0.982;2023-07-16T00:06:14;99496.53;;;22.57;49.21
53550;BME280;67273;52.914;-0.982;2023-07-16T00:11:05;99497.66;;;22.56;49.20
53550;BME280;67273;52.914;-0.982;2023-07-16T00:13:31;99493.56;;;22.54;49.10
53550;BME280;67273;52.914;-0.982;2023-07-16T00:15:58;99492.78;;;22.53;49.15
53550;BME280;67273;52.914;-0.982;2023-07-16T00:18:24;99506.47;;;22.53;49.18
53550;BME280;67273;52.914;-0.982;2023-07-16T00:20:49;99499.06;;;22.54;49.19
53550;BME280;67273;52.914;-0.982;2023-07-16T00:23:15;99506.47;;;22.53;49.02
53550;BME280;67273;52.914;-0.982;2023-07-16T00:25:41;99513.03;;;22.52;49.06
53550;BME280;67273;52.914;-0.982;2023-07-16T00:28:06;99513.88;;;22.53;49.02
53550;BME280;67273;52.914;-0.982;2023-07-16T00:30:32;99507.56;;;22.52;48.97
53550;BME280;67273;52.914;-0.982;2023-07-16T00:32:59;99524.25;;;22.51;48.98
53550;BME280;67273;52.914;-0.982;2023-07-16T00:35:25;99514.16;;;22.51;49.05
53550;BME280;67273;52.914;-0.982;2023-07-16T00:37:50;99528.13;;;22.50;49.12
53550;BME280;67273;52.914;-0.982;2023-07-16T00:40:17;99519.09;;;22.49;49.07
53550;BME280;67273;52.914;-0.982;2023-07-16T00:42:42;99529.22;;;22.49;49.14
53550;BME280;67273;52.914;-0.982;2023-07-16T00:45:12;99528.94;;;22.50;48.92
53550;BME280;67273;52.914;-0.982;2023-07-16T00:47:41;99530.06;;;22.49;48.95
53550;BME280;67273;52.914;-0.982;2023-07-16T00:50:10;99533.59;;;22.50;49.07
53550;BME280;67273;52.914;-0.982;2023-07-16T00:52:37;99539.38;;;22.48;48.95
53550;BME280;67273;52.914;-0.982;2023-07-16T00:55:04;99537.72;;;22.47;48.84
53550;BME280;67273;52.914;-0.982;2023-07-16T00:57:31;99539.38;;;22.48;48.99
53550;BME280;67273;52.914;-0.982;2023-07-16T00:59:57;99543.19;;;22.47;48.86
53550;BME280;67273;52.914;-0.982;2023-07-16T01:02:22;99551.72;;;22.46;48.85
53550;BME280;67273;52.914;-0.982;2023-07-16T01:04:48;99552.53;;;22.46;48.85
53550;BME280;67273;52.914;-0.982;2023-07-16T01:07:15;99550.59;;;22.47;48.83
53550;BME280;67273;52.914;-0.982;2023-07-16T01:09:44;99547.06;;;22.46;48.82
53550;BME280;67273;52.914;-0.982;2023-07-16T01:12:13;99551.72;;;22.46;48.84
53550;BME280;67273;52.914;-0.982;2023-07-16T01:14:39;99556.34;;;22.45;48.62
53550;BME280;67273;52.914;-0.982;2023-07-16T01:17:06;99560.22;;;22.44;48.67
53550;BME280;67273;52.914;-0.982;2023-07-16T01:19:32;99565.69;;;22.44;48.42
53550;BME280;67273;52.914;-0.982;2023-07-16T01:22:08;99562.97;;;22.44;48.46
53550;BME280;67273;52.914;-0.982;2023-07-16T01:24:53;99568.72;;;22.43;48.34
53550;BME280;67273;52.914;-0.982;2023-07-16T01:27:44;99567.06;;;22.42;48.41
53550;BME280;67273;52.914;-0.982;2023-07-16T01:30:18;99581.88;;;22.40;48.28
53550;BME280;67273;52.914;-0.982;2023-07-16T01:32:45;99582.69;;;22.41;48.45
53550;BME280;67273;52.914;-0.982;2023-07-16T01:35:12;99588.16;;;22.41;48.50
53550;BME280;67273;52.914;-0.982;2023-07-16T01:37:40;99583.78;;;22.40;48.58
53550;BME280;67273;52.914;-0.982;2023-07-16T01:40:08;99586.53;;;22.40;48.66
53550;BME280;67273;52.914;-0.982;2023-07-16T01:42:37;99589.25;;;22.40;48.39
53550;BME280;67273;52.914;-0.982;2023-07-16T01:45:03;99590.38;;;22.39;48.26
53550;BME280;67273;52.914;-0.982;2023-07-16T01:47:38;99584.91;;;22.39;48.33
53550;BME280;67273;52.914;-0.982;2023-07-16T01:50:07;99589.56;;;22.38;48.11
53550;BME280;67273;52.914;-0.982;2023-07-16T01:52:33;99594.22;;;22.38;48.52
53550;BME280;67273;52.914;-0.982;2023-07-16T01:54:58;99598.06;;;22.37;48.37
53550;BME280;67273;52.914;-0.982;2023-07-16T01:57:24;99609.00;;;22.37;48.54
53550;BME280;67273;52.914;-0.982;2023-07-16T01:59:50;99598.06;;;22.37;48.48
53550;BME280;67273;52.914;-0.982;2023-07-16T02:02:15;99611.75;;;22.37;48.46
53550;BME280;67273;52.914;-0.982;2023-07-16T02:04:43;99604.63;;;22.36;48.37
53550;BME280;67273;52.914;-0.982;2023-07-16T02:07:08;99612.84;;;22.36;48.30
53550;BME280;67273;52.914;-0.982;2023-07-16T02:09:34;99616.69;;;22.35;48.43
53550;BME280;67273;52.914;-0.982;2023-07-16T02:12:00;99629.25;;;22.36;48.36
53550;BME280;67273;52.914;-0.982;2023-07-16T02:14:27;99619.13;;;22.36;48.23
53550;BME280;67273;52.914;-0.982;2023-07-16T02:16:52;99617.50;;;22.35;48.33
53550;BME280;67273;52.914;-0.982;2023-07-16T02:19:20;99631.47;;;22.34;48.32
53550;BME280;67273;52.914;-0.982;2023-07-16T02:21:51;99624.34;;;22.33;48.08
53550;BME280;67273;52.914;-0.982;2023-07-16T02:24:17;99626.00;;;22.34;48.16
53550;BME280;67273;52.914;-0.982;2023-07-16T02:26:43;99634.50;;;22.32;48.05
53550;BME280;67273;52.914;-0.982;2023-07-16T02:29:11;99639.16;;;22.32;48.26
53550;BME280;67273;52.914;-0.982;2023-07-16T02:31:37;99639.16;;;22.32;48.26
53550;BME280;67273;52.914;-0.982;2023-07-16T02:34:03;99639.97;;;22.32;48.28
53550;BME280;67273;52.914;-0.982;2023-07-16T02:36:32;99647.38;;;22.32;48.05
53550;BME280;67273;52.914;-0.982;2023-07-16T02:38:59;99654.75;;;22.31;48.06
53550;BME280;67273;52.914;-0.982;2023-07-16T02:41:25;99658.59;;;22.30;48.01
53550;BME280;67273;52.914;-0.982;2023-07-16T02:43:59;99656.69;;;22.31;48.12
53550;BME280;67273;52.914;-0.982;2023-07-16T02:46:25;99662.44;;;22.29;48.19
53550;BME280;67273;52.914;-0.982;2023-07-16T02:48:52;99661.63;;;22.29;48.15
53550;BME280;67273;52.914;-0.982;2023-07-16T02:51:18;99653.41;;;22.29;48.06
53550;BME280;67273;52.914;-0.982;2023-07-16T02:53:44;99661.63;;;22.29;48.25
53550;BME280;67273;52.914;-0.982;2023-07-16T02:56:11;99670.91;;;22.28;48.31
53550;BME280;67273;52.914;-0.982;2023-07-16T02:58:37;99670.13;;;22.27;48.28
53550;BME280;67273;52.914;-0.982;2023-07-16T03:01:03;99661.63;;;22.29;48.19
53550;BME280;67273;52.914;-0.982;2023-07-16T03:03:29;99665.44;;;22.28;48.25
53550;BME280;67273;52.914;-0.982;2023-07-16T03:05:55;99661.09;;;22.27;48.13
53550;BME280;67273;52.914;-0.982;2023-07-16T03:08:21;99673.94;;;22.26;48.20
53550;BME280;67273;52.914;-0.982;2023-07-16T03:10:48;99665.72;;;22.26;48.38
53550;BME280;67273;52.914;-0.982;2023-07-16T03:13:15;99693.94;;;22.27;48.30
53550;BME280;67273;52.914;-0.982;2023-07-16T03:15:41;99681.31;;;22.26;48.11
53550;BME280;67273;52.914;-0.982;2023-07-16T03:18:07;99684.88;;;22.26;48.08
53550;BME280;67273;52.914;-0.982;2023-07-16T03:20:32;99686.78;;;22.26;48.07
53550;BME280;67273;52.914;-0.982;2023-07-16T03:22:58;99709.78;;;22.25;48.02
53550;BME280;67273;52.914;-0.982;2023-07-16T03:25:24;99688.72;;;22.25;48.10
53550;BME280;67273;52.914;-0.982;2023-07-16T03:27:49;99698.00;;;22.24;47.89
53550;BME280;67273;52.914;-0.982;2023-07-16T03:30:17;99702.69;;;22.24;48.03
53550;BME280;67273;52.914;-0.982;2023-07-16T03:32:43;99707.34;;;22.23;48.13
53550;BME280;67273;52.914;-0.982;2023-07-16T03:35:09;99710.34;;;22.21;48.15
53550;BME280;67273;52.914;-0.982;2023-07-16T03:37:35;99719.66;;;22.20;48.17
53550;BME280;67273;52.914;-0.982;2023-07-16T03:40:12;99731.44;;;22.21;47.94
53550;BME280;67273;52.914;-0.982;2023-07-16T03:42:38;99730.59;;;22.20;48.11
53550;BME280;67273;52.914;-0.982;2023-07-16T03:45:05;99749.47;;;22.22;48.11
53550;BME280;67273;52.914;-0.982;2023-07-16T03:47:32;99734.97;;;22.21;47.99
53550;BME280;67273;52.914;-0.982;2023-07-16T03:49:58;99753.31;;;22.21;47.92
53550;BME280;67273;52.914;-0.982;2023-07-16T03:52:23;99752.50;;;22.20;48.22
53550;BME280;67273;52.914;-0.982;2023-07-16T03:54:51;99757.97;;;22.20;48.20
53550;BME280;67273;52.914;-0.982;2023-07-16T03:57:20;99761.81;;;22.19;47.88
53550;BME280;67273;52.914;-0.982;2023-07-16T03:59:48;99765.63;;;22.18;48.04
53550;BME280;67273;52.914;-0.982;2023-07-16T04:02:17;99761.28;;;22.17;47.94
53550;BME280;67273;52.914;-0.982;2023-07-16T04:04:45;99773.84;;;22.18;48.13
53550;BME280;67273;52.914;-0.982;2023-07-16T04:07:12;99777.41;;;22.19;48.12
53550;BME280;67273;52.914;-0.982;2023-07-16T04:09:39;99778.78;;;22.16;48.10
53550;BME280;67273;52.914;-0.982;2023-07-16T04:12:09;99796.84;;;22.17;48.10
53550;BME280;67273;52.914;-0.982;2023-07-16T04:14:37;99791.66;;;22.16;48.14
53550;BME280;67273;52.914;-0.982;2023-07-16T04:17:06;99794.41;;;22.16;48.07
53550;BME280;67273;52.914;-0.982;2023-07-16T04:19:36;99797.94;;;22.16;48.24
53550;BME280;67273;52.914;-0.982;2023-07-16T04:22:04;99800.97;;;22.15;48.18
53550;BME280;67273;52.914;-0.982;2023-07-16T04:24:30;99801.78;;;22.15;48.37
53550;BME280;67273;52.914;-0.982;2023-07-16T04:26:58;99820.94;;;22.15;48.21
53550;BME280;67273;52.914;-0.982;2023-07-16T04:29:25;99808.34;;;22.14;47.95
53550;BME280;67273;52.914;-0.982;2023-07-16T04:31:52;99820.38;;;22.13;48.24
53550;BME280;67273;52.914;-0.982;2023-07-16T04:34:18;99821.22;;;22.14;48.35
53550;BME280;67273;52.914;-0.982;2023-07-16T04:36:45;99819.84;;;22.11;48.08
53550;BME280;67273;52.914;-0.982;2023-07-16T04:39:14;99828.59;;;22.13;48.18
53550;BME280;67273;52.914;-0.982;2023-07-16T04:41:40;99835.72;;;22.14;48.20
53550;BME280;67273;52.914;-0.982;2023-07-16T04:44:05;99836.81;;;22.13;48.13
53550;BME280;67273;52.914;-0.982;2023-07-16T04:46:33;99839.53;;;22.13;48.06
53550;BME280;67273;52.914;-0.982;2023-07-16T04:48:59;99840.66;;;22.12;48.10
53550;BME280;67273;52.914;-0.982;2023-07-16T04:51:27;99845.28;;;22.12;48.08
53550;BME280;67273;52.914;-0.982;2023-07-16T04:53:53;99853.50;;;22.12;48.19
53550;BME280;67273;52.914;-0.982;2023-07-16T04:56:21;99845.28;;;22.12;48.15
53550;BME280;67273;52.914;-0.982;2023-07-16T04:58:47;99854.59;;;22.11;48.00
53550;BME280;67273;52.914;-0.982;2023-07-16T05:01:12;99857.34;;;22.11;48.07
53550;BME280;67273;52.914;-0.982;2023-07-16T05:03:40;99860.88;;;22.11;48.21
53550;BME280;67273;52.914;-0.982;2023-07-16T05:06:06;99878.44;;;22.10;48.38
53550;BME280;67273;52.914;-0.982;2023-07-16T05:08:32;99883.91;;;22.10;48.19
53550;BME280;67273;52.914;-0.982;2023-07-16T05:10:58;99877.59;;;22.10;48.25
53550;BME280;67273;52.914;-0.982;2023-07-16T05:13:25;99887.72;;;22.09;48.28
53550;BME280;67273;52.914;-0.982;2023-07-16T05:15:53;99883.06;;;22.10;48.21
53550;BME280;67273;52.914;-0.982;2023-07-16T05:18:21;99894.00;;;22.10;48.13
53550;BME280;67273;52.914;-0.982;2023-07-16T05:20:47;99898.66;;;22.09;48.22
53550;BME280;67273;52.914;-0.982;2023-07-16T05:23:13;99898.66;;;22.09;48.23
53550;BME280;67273;52.914;-0.982;2023-07-16T05:25:45;99909.59;;;22.09;48.08
53550;BME280;67273;52.914;-0.982;2023-07-16T05:28:13;99909.59;;;22.09;48.17
53550;BME280;67273;52.914;-0.982;2023-07-16T05:30:41;99907.94;;;22.08;48.15
53550;BME280;67273;52.914;-0.982;2023-07-16T05:33:06;99915.06;;;22.09;48.17
53550;BME280;67273;52.914;-0.982;2023-07-16T05:35:32;99924.38;;;22.08;48.20
53550;BME280;67273;52.914;-0.982;2023-07-16T05:37:59;99923.56;;;22.08;48.27
53550;BME280;67273;52.914;-0.982;2023-07-16T05:40:26;99929.03;;;22.08;48.04
53550;BME280;67273;52.914;-0.982;2023-07-16T05:42:52;99933.69;;;22.07;48.13
53550;BME280;67273;52.914;-0.982;2023-07-16T05:45:19;99939.16;;;22.07;48.33
53550;BME280;67273;52.914;-0.982;2023-07-16T05:47:50;99942.69;;;22.08;48.27
53550;BME280;67273;52.914;-0.982;2023-07-16T05:50:16;99939.16;;;22.07;48.31
53550;BME280;67273;52.914;-0.982;2023-07-16T05:52:42;99942.97;;;22.06;48.08
53550;BME280;67273;52.914;-0.982;2023-07-16T05:55:08;99949.28;;;22.07;48.18
53550;BME280;67273;52.914;-0.982;2023-07-16T05:57:34;99959.38;;;22.06;48.15
53550;BME280;67273;52.914;-0.982;2023-07-16T05:59:59;99964.88;;;22.06;48.29
53550;BME280;67273;52.914;-0.982;2023-07-16T06:02:25;99972.25;;;22.06;48.04
53550;BME280;67273;52.914;-0.982;2023-07-16T06:04:52;99974.19;;;22.05;48.22
53550;BME280;67273;52.914;-0.982;2023-07-16T06:07:18;99985.13;;;22.05;48.18
53550;BME280;67273;52.914;-0.982;2023-07-16T06:09:44;99978.00;;;22.04;48.17
53550;BME280;67273;52.914;-0.982;2023-07-16T06:12:10;99995.22;;;22.05;47.99
53550;BME280;67273;52.914;-0.982;2023-07-16T06:14:35;99997.16;;;22.04;48.31
53550;BME280;67273;52.914;-0.982;2023-07-16T06:17:01;100010.81;;;22.04;48.52
53550;BME280;67273;52.914;-0.982;2023-07-16T06:19:27;100011.94;;;22.03;48.36
53550;BME280;67273;52.914;-0.982;2023-07-16T06:21:55;100006.75;;;22.01;48.51
53550;BME280;67273;52.914;-0.982;2023-07-16T06:24:21;100018.22;;;22.03;48.62
53550;BME280;67273;52.914;-0.982;2023-07-16T06:26:46;100026.69;;;22.02;48.77
53550;BME280;67273;52.914;-0.982;2023-07-16T06:29:13;100025.91;;;22.01;48.63
53550;BME280;67273;52.914;-0.982;2023-07-16T06:31:39;100022.31;;;22.01;48.67
53550;BME280;67273;52.914;-0.982;2023-07-16T06:34:04;100033.25;;;22.01;48.86
53550;BME280;67273;52.914;-0.982;2023-07-16T06:36:30;100035.19;;;22.00;48.81
53550;BME280;67273;52.914;-0.982;2023-07-16T06:38:57;100038.72;;;22.01;48.87
53550;BME280;67273;52.914;-0.982;2023-07-16T06:41:23;100038.72;;;22.01;48.83
53550;BME280;67273;52.914;-0.982;2023-07-16T06:43:48;100041.47;;;22.01;48.69
53550;BME280;67273;52.914;-0.982;2023-07-16T06:46:14;100045.03;;;22.01;48.85
53550;BME280;67273;52.914;-0.982;2023-07-16T06:48:40;100043.38;;;22.00;49.04
53550;BME280;67273;52.914;-0.982;2023-07-16T06:51:06;100040.38;;;22.02;48.84
53550;BME280;67273;52.914;-0.982;2023-07-16T06:53:32;100044.19;;;22.01;48.96
53550;BME280;67273;52.914;-0.982;2023-07-16T06:56:00;100050.50;;;22.01;48.80
53550;BME280;67273;52.914;-0.982;2023-07-16T06:58:31;100059.53;;;22.02;48.90
53550;BME280;67273;52.914;-0.982;2023-07-16T07:00:57;100055.97;;;22.01;48.95
53550;BME280;67273;52.914;-0.982;2023-07-16T07:03:23;100066.09;;;22.01;48.80
53550;BME280;67273;52.914;-0.982;2023-07-16T07:05:49;100068.00;;;22.00;48.98
53550;BME280;67273;52.914;-0.982;2023-07-16T07:08:14;100059.00;;;22.00;48.97
53550;BME280;67273;52.914;-0.982;2023-07-16T07:10:40;100071.56;;;22.01;49.03
53550;BME280;67273;52.914;-0.982;2023-07-16T07:13:07;100075.13;;;22.01;48.79
53550;BME280;67273;52.914;-0.982;2023-07-16T07:15:33;100078.69;;;22.02;48.90
53550;BME280;67273;52.914;-0.982;2023-07-16T07:17:59;100092.34;;;22.02;48.97
53550;BME280;67273;52.914;-0.982;2023-07-16T07:20:24;100097.81;;;22.02;48.73
53550;BME280;67273;52.914;-0.982;2023-07-16T07:22:50;100089.63;;;22.02;48.82
53550;BME280;67273;52.914;-0.982;2023-07-16T07:25:16;100100.56;;;22.02;49.00
53550;BME280;67273;52.914;-0.982;2023-07-16T07:27:42;100102.22;;;22.03;48.84
53550;BME280;67273;52.914;-0.982;2023-07-16T07:30:09;100099.47;;;22.03;48.73
53550;BME280;67273;52.914;-0.982;2023-07-16T07:32:37;100104.94;;;22.03;49.01
53550;BME280;67273;52.914;-0.982;2023-07-16T07:35:03;100108.75;;;22.02;48.84
53550;BME280;67273;52.914;-0.982;2023-07-16T07:37:29;100102.47;;;22.01;48.72
53550;BME280;67273;52.914;-0.982;2023-07-16T07:39:54;100131.47;;;22.02;48.56
53550;BME280;67273;52.914;-0.982;2023-07-16T07:42:20;100121.34;;;22.03;48.71
53550;BME280;67273;52.914;-0.982;2023-07-16T07:44:46;100119.16;;;22.00;48.68
53550;BME280;67273;52.914;-0.982;2023-07-16T07:47:13;100126.25;;;22.01;48.72
53550;BME280;67273;52.914;-0.982;2023-07-16T07:49:38;100126.25;;;22.01;48.46
53550;BME280;67273;52.914;-0.982;2023-07-16T07:52:05;100126.25;;;22.01;48.13
53550;BME280;67273;52.914;-0.982;2023-07-16T07:54:31;100125.44;;;22.00;48.29
53550;BME280;67273;52.914;-0.982;2023-07-16T07:57:00;100118.34;;;21.99;48.14
53550;BME280;67273;52.914;-0.982;2023-07-16T07:59:27;100128.47;;;21.99;48.13
53550;BME280;67273;52.914;-0.982;2023-07-16T08:01:53;100121.34;;;21.98;48.04
53550;BME280;67273;52.914;-0.982;2023-07-16T08:04:20;100119.72;;;21.97;48.23
53550;BME280;67273;52.914;-0.982;2023-07-16T08:06:45;100137.78;;;21.98;48.14
53550;BME280;67273;52.914;-0.982;2023-07-16T08:09:11;100137.78;;;21.98;48.12
53550;BME280;67273;52.914;-0.982;2023-07-16T08:11:37;100148.16;;;21.96;48.24
53550;BME280;67273;52.914;-0.982;2023-07-16T08:14:02;100138.03;;;21.96;48.17
53550;BME280;67273;52.914;-0.982;2023-07-16T08:16:28;100153.34;;;21.97;48.29
53550;BME280;67273;52.914;-0.982;2023-07-16T08:18:54;100159.66;;;21.98;48.11
53550;BME280;67273;52.914;-0.982;2023-07-16T08:21:21;100164.28;;;21.97;48.30
53550;BME280;67273;52.914;-0.982;2023-07-16T08:23:51;100167.03;;;21.97;48.13
53550;BME280;67273;52.914;-0.982;2023-07-16T08:26:19;100165.13;;;21.98;48.16
53550;BME280;67273;52.914;-0.982;2023-07-16T08:28:47;100171.41;;;21.98;48.09
53550;BME280;67273;52.914;-0.982;2023-07-16T08:31:16;100174.13;;;21.98;48.20
53550;BME280;67273;52.914;-0.982;2023-07-16T08:33:42;100180.44;;;21.99;48.19
53550;BME280;67273;52.914;-0.982;2023-07-16T08:36:09;100186.75;;;21.99;48.26
53550;BME280;67273;52.914;-0.982;2023-07-16T08:38:36;100179.63;;;21.98;48.15
53550;BME280;67273;52.914;-0.982;2023-07-16T08:41:04;100189.75;;;21.98;48.05
53550;BME280;67273;52.914;-0.982;2023-07-16T08:43:32;100187.81;;;21.98;48.25
53550;BME280;67273;52.914;-0.982;2023-07-16T08:46:00;100199.56;;;21.99;48.13
53550;BME280;67273;52.914;-0.982;2023-07-16T08:48:28;100198.75;;;21.98;48.04
53550;BME280;67273;52.914;-0.982;2023-07-16T08:50:55;100215.16;;;21.98;48.00
53550;BME280;67273;52.914;-0.982;2023-07-16T08:53:22;100208.88;;;21.98;47.76
53550;BME280;67273;52.914;-0.982;2023-07-16T08:55:49;100222.31;;;21.99;47.85
53550;BME280;67273;52.914;-0.982;2023-07-16T08:58:16;100216.81;;;21.99;47.95
53550;BME280;67273;52.914;-0.982;2023-07-16T09:00:49;100219.84;;;21.98;47.99
53550;BME280;67273;52.914;-0.982;2023-07-16T09:03:18;100221.47;;;21.99;47.68
53550;BME280;67273;52.914;-0.982;2023-07-16T09:05:45;100221.47;;;21.99;47.90
53550;BME280;67273;52.914;-0.982;2023-07-16T09:08:13;100219.84;;;21.98;47.64
53550;BME280;67273;52.914;-0.982;2023-07-16T09:10:40;100228.84;;;21.98;47.45
53550;BME280;67273;52.914;-0.982;2023-07-16T09:13:09;100241.72;;;21.98;47.55
53550;BME280;67273;52.914;-0.982;2023-07-16T09:15:38;100241.72;;;21.98;47.58
53550;BME280;67273;52.914;-0.982;2023-07-16T09:18:07;100239.78;;;21.98;47.52
53550;BME280;67273;52.914;-0.982;2023-07-16T09:20:34;100243.34;;;21.99;47.59
53550;BME280;67273;52.914;-0.982;2023-07-16T09:23:02;100231.31;;;22.00;47.49
53550;BME280;67273;52.914;-0.982;2023-07-16T09:25:31;100244.19;;;21.99;47.40
53550;BME280;67273;52.914;-0.982;2023-07-16T09:28:02;100245.00;;;22.00;47.72
53550;BME280;67273;52.914;-0.982;2023-07-16T09:30:32;100249.34;;;22.01;47.53
53550;BME280;67273;52.914;-0.982;2023-07-16T09:33:09;100252.94;;;22.01;47.61
53550;BME280;67273;52.914;-0.982;2023-07-16T09:35:36;100251.28;;;22.00;47.45
53550;BME280;67273;52.914;-0.982;2023-07-16T09:38:02;100255.94;;;22.00;47.49
53550;BME280;67273;52.914;-0.982;2023-07-16T09:40:28;100252.09;;;22.01;47.57
53550;BME280;67273;52.914;-0.982;2023-07-16T09:42:55;100260.03;;;22.02;47.36
53550;BME280;67273;52.914;-0.982;2023-07-16T09:45:21;100264.69;;;22.02;47.30
53550;BME280;67273;52.914;-0.982;2023-07-16T09:47:48;100280.03;;;22.03;47.39
53550;BME280;67273;52.914;-0.982;2023-07-16T09:50:14;100275.63;;;22.02;47.25
53550;BME280;67273;52.914;-0.982;2023-07-16T09:52:41;100274.56;;;22.03;47.27
53550;BME280;67273;52.914;-0.982;2023-07-16T09:55:09;100276.44;;;22.02;47.36
53550;BME280;67273;52.914;-0.982;2023-07-16T09:57:37;100280.03;;;22.03;47.20
53550;BME280;67273;52.914;-0.982;2023-07-16T10:00:06;100277.28;;;22.03;47.02
53550;BME280;67273;52.914;-0.982;2023-07-16T10:02:40;100282.75;;;22.03;47.13
53550;BME280;67273;52.914;-0.982;2023-07-16T10:05:14;100282.19;;;22.06;47.22
53550;BME280;67273;52.914;-0.982;2023-07-16T10:07:40;100284.13;;;22.06;47.07
53550;BME280;67273;52.914;-0.982;2023-07-16T10:10:08;100286.03;;;22.05;47.18
53550;BME280;67273;52.914;-0.982;2023-07-16T10:12:35;100296.72;;;22.07;47.02
53550;BME280;67273;52.914;-0.982;2023-07-16T10:15:01;100298.59;;;22.06;47.12
53550;BME280;67273;52.914;-0.982;2023-07-16T10:17:30;100293.13;;;22.06;47.36
53550;BME280;67273;52.914;-0.982;2023-07-16T10:19:58;100303.25;;;22.06;47.17
53550;BME280;67273;52.914;-0.982;2023-07-16T10:22:36;100315.03;;;22.06;47.25
53550;BME280;67273;52.914;-0.982;2023-07-16T10:25:04;100313.13;;;22.07;46.96
53550;BME280;67273;52.914;-0.982;2023-07-16T10:27:31;100303.00;;;22.07;47.19
53550;BME280;67273;52.914;-0.982;2023-07-16T10:29:58;100305.72;;;22.07;47.25
53550;BME280;67273;52.914;-0.982;2023-07-16T10:32:26;100322.16;;;22.07;47.34
53550;BME280;67273;52.914;-0.982;2023-07-16T10:34:53;100317.50;;;22.08;47.46
53550;BME280;67273;52.914;-0.982;2023-07-16T10:37:19;100321.03;;;22.08;47.33
53550;BME280;67273;52.914;-0.982;2023-07-16T10:39:48;100321.88;;;22.09;47.21
53550;BME280;67273;52.914;-0.982;2023-07-16T10:42:15;100321.88;;;22.09;47.13
53550;BME280;67273;52.914;-0.982;2023-07-16T10:44:41;100319.97;;;22.09;47.42
53550;BME280;67273;52.914;-0.982;2023-07-16T10:47:07;100319.97;;;22.09;47.68
53550;BME280;67273;52.914;-0.982;2023-07-16T10:49:34;100329.25;;;22.08;48.35
53550;BME280;67273;52.914;-0.982;2023-07-16T10:52:00;100333.63;;;22.09;48.14
53550;BME280;67273;52.914;-0.982;2023-07-16T10:54:27;100338.03;;;22.10;48.07
53550;BME280;67273;52.914;-0.982;2023-07-16T10:56:54;100328.16;;;22.09;48.17
53550;BME280;67273;52.914;-0.982;2023-07-16T10:59:20;100329.81;;;22.10;48.32
53550;BME280;67273;52.914;-0.982;2023-07-16T11:01:46;100320.78;;;22.10;48.33
53550;BME280;67273;52.914;-0.982;2023-07-16T11:04:11;100327.91;;;22.11;48.28
53550;BME280;67273;52.914;-0.982;2023-07-16T11:06:37;100327.63;;;22.12;48.54
53550;BME280;67273;52.914;-0.982;2023-07-16T11:09:06;100332.00;;;22.13;48.43
53550;BME280;67273;52.914;-0.982;2023-07-16T11:11:33;100327.63;;;22.12;48.48
53550;BME280;67273;52.914;-0.982;2023-07-16T11:14:00;100332.00;;;22.13;48.53
53550;BME280;67273;52.914;-0.982;2023-07-16T11:16:33;100335.00;;;22.12;48.55
53550;BME280;67273;52.914;-0.982;2023-07-16T11:19:01;100330.38;;;22.12;48.69
53550;BME280;67273;52.914;-0.982;2023-07-16T11:21:27;100334.72;;;22.13;48.62
53550;BME280;67273;52.914;-0.982;2023-07-16T11:23:53;100341.03;;;22.14;48.72
53550;BME280;67273;52.914;-0.982;2023-07-16T11:26:19;100328.19;;;22.14;48.56
53550;BME280;67273;52.914;-0.982;2023-07-16T11:28:45;100329.00;;;22.15;48.72
53550;BME280;67273;52.914;-0.982;2023-07-16T11:31:13;100327.09;;;22.15;48.56
53550;BME280;67273;52.914;-0.982;2023-07-16T11:33:42;100334.19;;;22.16;48.54
53550;BME280;67273;52.914;-0.982;2023-07-16T11:36:08;100341.59;;;22.16;48.52
53550;BME280;67273;52.914;-0.982;2023-07-16T11:38:36;100338.59;;;22.17;48.57
53550;BME280;67273;52.914;-0.982;2023-07-16T11:41:02;100351.16;;;22.18;48.45
53550;BME280;67273;52.914;-0.982;2023-07-16T11:43:28;100351.16;;;22.18;48.30
53550;BME280;67273;52.914;-0.982;2023-07-16T11:45:54;100359.38;;;22.18;48.28
53550;BME280;67273;52.914;-0.982;2023-07-16T11:48:21;100361.03;;;22.19;48.20
53550;BME280;67273;52.914;-0.982;2023-07-16T11:50:47;100369.25;;;22.19;48.16
53550;BME280;67273;52.914;-0.982;2023-07-16T11:53:12;100376.34;;;22.20;48.09
53550;BME280;67273;52.914;-0.982;2023-07-16T11:55:39;100382.91;;;22.19;48.32
53550;BME280;67273;52.914;-0.982;2023-07-16T11:58:04;100388.13;;;22.21;48.32
53550;BME280;67273;52.914;-0.982;2023-07-16T12:00:30;100388.94;;;22.21;48.46
53550;BME280;67273;52.914;-0.982;2023-07-16T12:02:56;100396.59;;;22.19;48.48
53550;BME280;67273;52.914;-0.982;2023-07-16T12:05:23;100394.41;;;22.21;48.40
53550;BME280;67273;52.914;-0.982;2023-07-16T12:07:53;100392.50;;;22.22;48.52
53550;BME280;67273;52.914;-0.982;2023-07-16T12:10:19;100395.22;;;22.22;48.42
53550;BME280;67273;52.914;-0.982;2023-07-16T12:12:45;100395.22;;;22.22;48.50
53550;BME280;67273;52.914;-0.982;2023-07-16T12:15:11;100392.22;;;22.24;48.37
53550;BME280;67273;52.914;-0.982;2023-07-16T12:17:37;100386.75;;;22.24;48.61
53550;BME280;67273;52.914;-0.982;2023-07-16T12:20:04;100396.63;;;22.25;48.48
53550;BME280;67273;52.914;-0.982;2023-07-16T12:22:31;100382.94;;;22.25;48.56
53550;BME280;67273;52.914;-0.982;2023-07-16T12:24:57;100392.78;;;22.26;48.55
53550;BME280;67273;52.914;-0.982;2023-07-16T12:27:23;100391.72;;;22.27;48.77
53550;BME280;67273;52.914;-0.982;2023-07-16T12:29:49;100390.88;;;22.26;48.70
53550;BME280;67273;52.914;-0.982;2023-07-16T12:32:15;100396.09;;;22.28;48.83
53550;BME280;67273;52.914;-0.982;2023-07-16T12:34:40;100393.34;;;22.28;48.90
53550;BME280;67273;52.914;-0.982;2023-07-16T12:37:06;100407.03;;;22.28;48.93
53550;BME280;67273;52.914;-0.982;2023-07-16T12:39:36;100399.66;;;22.28;48.98
53550;BME280;67273;52.914;-0.982;2023-07-16T12:42:02;100406.75;;;22.29;48.93
53550;BME280;67273;52.914;-0.982;2023-07-16T12:44:28;100409.25;;;22.31;48.96
53550;BME280;67273;52.914;-0.982;2023-07-16T12:46:54;100400.22;;;22.30;48.92